createdAt,value
2019-06-01T00:00:56.446Z,47.98
2019-06-01T00:06:00.270Z,47.90
2019-06-01T00:11:04.707Z,47.83
2019-06-01T00:16:08.493Z,48.26
2019-06-01T00:21:12.171Z,48.44
2019-06-01T00:26:15.823Z,48.18
2019-06-01T00:31:19.539Z,48.31
2019-06-01T00:36:23.311Z,48.10
2019-06-01T00:41:27.040Z,48.16
2019-06-01T00:46:30.883Z,47.91
2019-06-01T00:51:34.577Z,47.97
2019-06-01T00:56:38.219Z,47.86
2019-06-01T01:01:43.787Z,47.78
2019-06-01T01:06:49.233Z,47.96
2019-06-01T01:11:53.363Z,47.86
2019-06-01T01:16:57.383Z,47.80
2019-06-01T01:22:01.051Z,47.89
2019-06-01T01:27:05.023Z,47.86
2019-06-01T01:32:09.155Z,47.82
2019-06-01T01:37:12.876Z,47.84
2019-06-01T01:42:16.600Z,47.85
2019-06-01T01:47:20.710Z,47.84
2019-06-01T01:52:24.448Z,47.74
2019-06-01T01:57:28.272Z,47.75
2019-06-01T02:02:31.903Z,47.79
2019-06-01T02:07:35.756Z,47.88
2019-06-01T02:12:39.476Z,47.57
2019-06-01T02:17:43.279Z,47.50
2019-06-01T02:22:46.982Z,47.59
2019-06-01T02:27:50.811Z,47.60
2019-06-01T02:32:56.291Z,47.71
2019-06-01T02:38:00.445Z,48.13
2019-06-01T02:43:06.855Z,48.03
2019-06-01T02:48:10.651Z,47.88
2019-06-01T02:53:14.419Z,47.77
2019-06-01T02:58:18.260Z,47.77
2019-06-01T03:03:22.631Z,47.81
2019-06-01T03:08:28.552Z,47.69
2019-06-01T03:13:34.033Z,47.55
2019-06-01T03:18:39.831Z,47.96
2019-06-01T03:23:46.220Z,47.61
2019-06-01T03:28:52.043Z,47.68
2019-06-01T03:33:56.021Z,47.61
2019-06-01T03:38:59.991Z,47.69
2019-06-01T03:44:06.445Z,47.79
2019-06-01T03:49:11.855Z,47.67
2019-06-01T03:54:15.776Z,47.65
2019-06-01T03:59:19.488Z,47.66
2019-06-01T04:04:23.593Z,47.79
2019-06-01T04:09:27.353Z,47.87
2019-06-01T04:14:31.061Z,47.77
2019-06-01T04:19:34.826Z,47.67
2019-06-01T04:24:38.460Z,47.52
2019-06-01T04:29:42.167Z,47.54
2019-06-01T04:34:45.949Z,47.35
2019-06-01T04:39:49.560Z,47.40
2019-06-01T04:44:53.256Z,47.37
2019-06-01T04:49:56.885Z,47.36
2019-06-01T04:55:00.572Z,47.50
2019-06-01T05:00:12.647Z,47.62
2019-06-01T05:05:13.344Z,47.98
2019-06-01T05:10:17.248Z,47.95
2019-06-01T05:15:21.147Z,47.58
2019-06-01T05:20:24.964Z,47.57
2019-06-01T05:25:28.680Z,47.27
2019-06-01T05:30:32.445Z,46.99
2019-06-01T05:35:36.084Z,46.92
2019-06-01T05:40:39.736Z,47.11
2019-06-01T05:45:43.510Z,47.01
2019-06-01T05:50:47.232Z,46.92
2019-06-01T05:55:50.839Z,46.85
2019-06-01T06:00:54.470Z,46.69
2019-06-01T06:05:58.088Z,46.71
2019-06-01T06:11:01.862Z,46.62
2019-06-01T06:16:05.681Z,46.55
2019-06-01T06:21:09.508Z,46.57
2019-06-01T06:26:15.516Z,46.52
2019-06-01T06:31:19.145Z,46.45
2019-06-01T06:36:24.468Z,46.54
2019-06-01T06:41:28.190Z,46.48
2019-06-01T06:46:31.903Z,46.46
2019-06-01T06:51:35.616Z,46.71
2019-06-01T06:56:39.240Z,46.68
2019-06-01T07:01:42.961Z,46.59
2019-06-01T07:06:47.092Z,46.64
2019-06-01T07:11:50.920Z,46.52
2019-06-01T07:16:54.559Z,46.72
2019-06-01T07:21:58.190Z,46.30
2019-06-01T07:27:01.853Z,45.91
2019-06-01T07:32:05.403Z,46.48
2019-06-01T07:37:09.830Z,46.86
2019-06-01T07:42:13.478Z,47.44
2019-06-01T07:47:17.090Z,47.30
2019-06-01T07:52:20.576Z,47.45
2019-06-01T07:57:25.443Z,48.15
2019-06-01T08:02:30.715Z,48.84
2019-06-01T08:07:34.816Z,49.34
2019-06-01T08:12:38.526Z,49.25
2019-06-01T08:17:42.167Z,49.53
2019-06-01T08:23:19.568Z,49.44
2019-06-01T08:28:24.384Z,49.29
2019-06-01T08:33:30.200Z,49.22
2019-06-01T08:38:33.823Z,49.66
2019-06-01T08:43:37.306Z,50.11
2019-06-01T08:48:40.956Z,49.95
2019-06-01T08:53:44.662Z,50.03
2019-06-01T08:58:48.366Z,50.03
2019-06-01T09:03:52.502Z,50.03
2019-06-01T09:08:56.272Z,50.02
2019-06-01T09:14:00.213Z,50.15
2019-06-01T09:19:04.191Z,49.82
2019-06-01T09:24:07.933Z,49.70
2019-06-01T09:29:11.513Z,49.74
2019-06-01T09:34:15.175Z,49.56
2019-06-01T09:39:18.858Z,49.74
2019-06-01T09:44:22.493Z,49.69
2019-06-01T09:49:27.248Z,49.79
2019-06-01T09:54:32.710Z,49.84
2019-06-01T09:59:36.392Z,49.69
2019-06-01T10:04:40.588Z,49.78
2019-06-01T10:09:44.228Z,49.71
2019-06-01T10:14:47.900Z,50.09
2019-06-01T10:19:51.469Z,49.97
2019-06-01T10:24:55.103Z,49.79
2019-06-01T10:29:58.854Z,49.93
2019-06-01T10:35:02.601Z,50.36
2019-06-01T10:40:07.545Z,51.46
2019-06-01T10:45:11.542Z,52.02
2019-06-01T10:50:17.641Z,52.09
2019-06-01T10:55:20.929Z,52.35
2019-06-01T11:00:37.816Z,52.25
2019-06-01T11:05:30.613Z,52.69
2019-06-01T11:10:34.874Z,52.31
2019-06-01T11:15:39.101Z,51.93
2019-06-01T11:20:43.641Z,52.17
2019-06-01T11:25:47.514Z,52.09
2019-06-01T11:30:51.111Z,52.03
2019-06-01T11:35:55.071Z,52.00
2019-06-01T11:40:58.752Z,51.90
2019-06-01T11:46:02.419Z,51.93
2019-06-01T11:51:06.065Z,51.75
2019-06-01T11:56:09.867Z,51.61
2019-06-01T12:01:13.690Z,51.34
2019-06-01T12:06:17.299Z,51.45
2019-06-01T12:11:21.167Z,51.37
2019-06-01T12:16:25.261Z,50.92
2019-06-01T12:21:28.900Z,51.05
2019-06-01T12:26:32.378Z,51.02
2019-06-01T12:31:36.008Z,51.07
2019-06-01T12:36:40.937Z,50.71
2019-06-01T12:41:45.755Z,50.82
2019-06-01T12:46:49.300Z,50.78
2019-06-01T12:51:53.155Z,50.97
2019-06-01T12:56:56.967Z,51.18
2019-06-01T13:02:00.746Z,51.78
2019-06-01T13:07:04.839Z,52.44
2019-06-01T13:12:09.567Z,53.11
2019-06-01T13:17:13.290Z,52.56
2019-06-01T13:22:17.113Z,52.98
2019-06-01T13:27:20.824Z,52.92
2019-06-01T13:32:24.652Z,52.71
2019-06-01T13:37:28.405Z,52.54
2019-06-01T13:42:32.042Z,52.51
2019-06-01T13:47:35.812Z,51.88
2019-06-01T13:52:39.643Z,52.07
2019-06-01T13:57:44.204Z,51.95
2019-06-01T14:02:52.105Z,52.00
2019-06-01T14:07:53.615Z,51.77
2019-06-01T14:12:57.111Z,51.73
2019-06-01T14:18:03.652Z,51.88
2019-06-01T14:23:07.381Z,51.84
2019-06-01T14:28:11.057Z,50.78
2019-06-01T14:33:14.762Z,49.73
2019-06-01T14:38:18.402Z,50.13
2019-06-01T14:43:22.167Z,50.08
2019-06-01T14:48:25.809Z,50.06
2019-06-01T14:53:29.501Z,50.29
2019-06-01T14:58:33.223Z,50.40
2019-06-01T15:03:36.846Z,50.61
2019-06-01T15:08:40.579Z,50.74
2019-06-01T15:13:44.281Z,50.70
2019-06-01T15:18:47.909Z,50.40
2019-06-01T15:23:52.000Z,50.65
2019-06-01T15:28:56.964Z,50.68
2019-06-01T15:34:01.873Z,50.85
2019-06-01T15:39:23.686Z,51.41
2019-06-01T15:44:13.574Z,51.93
2019-06-01T15:49:17.152Z,51.78
2019-06-01T15:54:20.983Z,51.05
2019-06-01T15:59:24.859Z,50.37
2019-06-01T16:04:28.328Z,49.06
2019-06-01T16:09:42.214Z,49.10
2019-06-01T16:14:37.786Z,50.03
2019-06-01T16:19:41.425Z,52.67
2019-06-01T16:24:44.990Z,53.57
2019-06-01T16:29:48.450Z,53.73
2019-06-01T16:34:52.004Z,53.79
2019-06-01T16:39:59.781Z,53.87
2019-06-01T16:45:01.704Z,52.98
2019-06-01T16:50:09.252Z,52.96
2019-06-01T16:55:14.263Z,53.49
2019-06-01T17:00:18.632Z,53.90
2019-06-01T17:05:22.164Z,54.39
2019-06-01T17:10:26.798Z,53.93
2019-06-01T17:15:30.346Z,54.37
2019-06-01T17:20:42.185Z,55.06
2019-06-01T17:25:45.877Z,55.11
2019-06-01T17:30:49.653Z,55.49
2019-06-01T17:35:53.343Z,55.21
2019-06-01T17:40:56.842Z,55.53
2019-06-01T17:46:00.800Z,55.35
2019-06-01T17:51:06.622Z,55.20
2019-06-01T17:56:10.644Z,54.72
2019-06-01T18:01:14.168Z,53.79
2019-06-01T18:06:17.820Z,53.51
2019-06-01T18:11:21.378Z,53.88
2019-06-01T18:16:25.154Z,53.58
2019-06-01T18:21:28.891Z,53.42
2019-06-01T18:26:32.611Z,53.57
2019-06-01T18:31:36.222Z,53.81
2019-06-01T18:36:39.696Z,51.61
2019-06-01T18:41:43.288Z,50.34
2019-06-01T18:46:47.178Z,49.27
2019-06-01T18:51:50.913Z,49.83
2019-06-01T18:57:09.011Z,51.09
2019-06-01T19:02:01.562Z,52.02
2019-06-01T19:07:05.359Z,52.42
2019-06-01T19:12:09.450Z,52.82
2019-06-01T19:17:14.436Z,53.02
2019-06-01T19:22:18.056Z,53.36
2019-06-01T19:27:24.000Z,53.75
2019-06-01T19:32:28.072Z,53.75
2019-06-01T19:37:37.318Z,53.55
2019-06-01T19:42:39.880Z,53.66
2019-06-01T19:47:43.699Z,53.71
2019-06-01T19:52:47.274Z,53.68
2019-06-01T19:57:51.167Z,54.06
2019-06-01T20:02:55.266Z,54.36
2019-06-01T20:07:59.033Z,54.50
2019-06-01T20:13:03.060Z,54.58
2019-06-01T20:18:07.477Z,54.75
2019-06-01T20:23:11.593Z,55.07
2019-06-01T20:28:15.687Z,54.90
2019-06-01T20:33:20.545Z,54.62
2019-06-01T20:38:24.372Z,55.08
2019-06-01T20:43:30.967Z,54.82
2019-06-01T20:48:36.150Z,54.86
2019-06-01T20:53:41.785Z,54.85
2019-06-01T20:58:45.623Z,54.28
2019-06-01T21:03:49.183Z,54.14
2019-06-01T21:08:53.360Z,54.07
2019-06-01T21:13:57.463Z,54.27
2019-06-01T21:19:00.942Z,54.22
2019-06-01T21:24:05.310Z,53.87
2019-06-01T21:29:08.794Z,53.78
2019-06-01T21:34:12.417Z,53.59
2019-06-01T21:39:15.929Z,53.70
2019-06-01T21:44:21.626Z,53.72
2019-06-01T21:49:25.937Z,53.71
2019-06-01T21:54:29.822Z,53.79
2019-06-01T21:59:33.464Z,53.52
2019-06-01T22:04:37.166Z,53.43
2019-06-01T22:09:40.880Z,53.27
2019-06-01T22:14:44.610Z,53.08
2019-06-01T22:19:48.333Z,53.14
2019-06-01T22:24:51.890Z,53.05
2019-06-01T22:29:55.859Z,52.92
2019-06-01T22:34:59.358Z,52.80
2019-06-01T22:40:03.314Z,52.60
2019-06-01T22:45:08.486Z,52.50
2019-06-01T22:50:12.484Z,52.64
2019-06-01T22:55:16.214Z,52.56
2019-06-01T23:00:19.986Z,52.66
2019-06-01T23:05:24.933Z,52.60
2019-06-01T23:10:33.082Z,52.65
2019-06-01T23:15:34.243Z,52.62
2019-06-01T23:20:37.788Z,52.40
2019-06-01T23:25:41.489Z,52.40
2019-06-01T23:30:45.535Z,52.26
2019-06-01T23:35:49.255Z,52.09
2019-06-01T23:40:53.091Z,52.27
2019-06-01T23:45:56.874Z,52.21
2019-06-01T23:51:00.569Z,52.06
2019-06-01T23:56:05.272Z,52.09
